Terminal Aerodrome Forecast
Issued by NWS Shreveport, LA

Home | Current Version | Previous Version | Text Only | Print | Product List | Glossary On
Versions: 1 2 3 4 5 6 7 8 9 10 11 12 13 14 15 16 17
000
FTUS44 KSHV 031158
TAFLFK
TAF
KLFK 031158Z 0312/0412 19003KT 4SM BR FEW004
      TEMPO 0312/0314 3SM BR BKN004
     FM031400 21008KT P6SM BKN010
     FM031600 20010KT P6SM SCT015 SCT150 BKN250
     FM031800 21011KT P6SM BKN050
     FM032300 20008KT P6SM VCTS BKN045CB BKN180
     FM040100 16005KT P6SM BKN045 BKN180
     FM040900 18003KT 4SM BR OVC015=

USA.gov is the U.S. government's official web portal to all federal, state and local government web resources and services.